sensor_id;sensor_type;location;lat;lon;timestamp;temperature;humidity
23609;DHT22;11982;50.810;4.442;2024-01-16T00:01:12;1.20;99.90
23609;DHT22;11982;50.810;4.442;2024-01-16T00:03:39;1.20;99.90
23609;DHT22;11982;50.810;4.442;2024-01-16T00:06:05;1.10;99.90
23609;DHT22;11982;50.810;4.442;2024-01-16T00:08:32;1.10;99.90
23609;DHT22;11982;50.810;4.442;2024-01-16T00:10:57;1.00;99.90
23609;DHT22;11982;50.810;4.442;2024-01-16T00:13:23;1.00;99.90
23609;DHT22;11982;50.810;4.442;2024-01-16T00:15:49;0.90;99.90
23609;DHT22;11982;50.810;4.442;2024-01-16T00:18:15;0.70;99.90
23609;DHT22;11982;50.810;4.442;2024-01-16T00:20:41;0.70;99.90
23609;DHT22;11982;50.810;4.442;2024-01-16T00:23:06;0.70;99.90
23609;DHT22;11982;50.810;4.442;2024-01-16T00:25:32;0.70;99.90
23609;DHT22;11982;50.810;4.442;2024-01-16T00:27:58;0.70;99.90
23609;DHT22;11982;50.810;4.442;2024-01-16T00:30:23;0.60;99.90
23609;DHT22;11982;50.810;4.442;2024-01-16T00:32:49;0.60;99.90
23609;DHT22;11982;50.810;4.442;2024-01-16T00:35:15;0.70;99.90
23609;DHT22;11982;50.810;4.442;2024-01-16T00:37:40;0.70;99.90
23609;DHT22;11982;50.810;4.442;2024-01-16T00:40:06;0.70;99.90
23609;DHT22;11982;50.810;4.442;2024-01-16T00:42:34;0.80;99.90
23609;DHT22;11982;50.810;4.442;2024-01-16T00:45:00;0.80;99.90
23609;DHT22;11982;50.810;4.442;2024-01-16T00:47:26;0.80;99.90
23609;DHT22;11982;50.810;4.442;2024-01-16T00:49:51;0.80;99.90
23609;DHT22;11982;50.810;4.442;2024-01-16T00:52:17;0.80;99.90
23609;DHT22;11982;50.810;4.442;2024-01-16T00:54:43;0.80;99.90
23609;DHT22;11982;50.810;4.442;2024-01-16T00:57:09;0.80;99.90
23609;DHT22;11982;50.810;4.442;2024-01-16T00:59:35;0.80;99.90
23609;DHT22;11982;50.810;4.442;2024-01-16T01:02:00;0.70;99.90
23609;DHT22;11982;50.810;4.442;2024-01-16T01:04:26;0.80;99.90
23609;DHT22;11982;50.810;4.442;2024-01-16T01:06:52;0.70;99.90
23609;DHT22;11982;50.810;4.442;2024-01-16T01:09:17;0.70;99.90
23609;DHT22;11982;50.810;4.442;2024-01-16T01:11:43;0.70;99.90
23609;DHT22;11982;50.810;4.442;2024-01-16T01:14:09;0.70;99.90
23609;DHT22;11982;50.810;4.442;2024-01-16T01:16:34;0.60;99.90
23609;DHT22;11982;50.810;4.442;2024-01-16T01:19:00;0.60;99.90
23609;DHT22;11982;50.810;4.442;2024-01-16T01:21:26;0.60;99.90
23609;DHT22;11982;50.810;4.442;2024-01-16T01:23:52;0.70;99.90
23609;DHT22;11982;50.810;4.442;2024-01-16T01:26:18;0.60;99.90
23609;DHT22;11982;50.810;4.442;2024-01-16T01:28:44;0.50;99.90
23609;DHT22;11982;50.810;4.442;2024-01-16T01:31:11;0.50;99.90
23609;DHT22;11982;50.810;4.442;2024-01-16T01:33:37;0.50;99.90
23609;DHT22;11982;50.810;4.442;2024-01-16T01:36:03;0.50;99.90
23609;DHT22;11982;50.810;4.442;2024-01-16T01:38:28;0.40;99.90
23609;DHT22;11982;50.810;4.442;2024-01-16T01:40:54;0.50;99.90
23609;DHT22;11982;50.810;4.442;2024-01-16T01:43:24;0.40;99.90
23609;DHT22;11982;50.810;4.442;2024-01-16T01:48:34;0.50;99.90
23609;DHT22;11982;50.810;4.442;2024-01-16T01:51:01;0.50;99.90
23609;DHT22;11982;50.810;4.442;2024-01-16T01:53:29;0.40;99.90
23609;DHT22;11982;50.810;4.442;2024-01-16T01:55:56;0.40;99.90
23609;DHT22;11982;50.810;4.442;2024-01-16T01:58:22;0.40;99.90
23609;DHT22;11982;50.810;4.442;2024-01-16T02:00:48;0.40;99.90
23609;DHT22;11982;50.810;4.442;2024-01-16T02:03:14;0.40;99.90
23609;DHT22;11982;50.810;4.442;2024-01-16T02:05:40;0.30;99.90
23609;DHT22;11982;50.810;4.442;2024-01-16T02:08:08;0.30;99.90
23609;DHT22;11982;50.810;4.442;2024-01-16T02:10:35;0.20;99.90
23609;DHT22;11982;50.810;4.442;2024-01-16T02:13:02;0.20;99.90
23609;DHT22;11982;50.810;4.442;2024-01-16T02:15:29;0.20;99.90
23609;DHT22;11982;50.810;4.442;2024-01-16T02:17:54;0.20;99.90
23609;DHT22;11982;50.810;4.442;2024-01-16T02:20:20;0.20;99.90
23609;DHT22;11982;50.810;4.442;2024-01-16T02:22:48;0.20;99.90
23609;DHT22;11982;50.810;4.442;2024-01-16T02:25:16;0.20;99.90
23609;DHT22;11982;50.810;4.442;2024-01-16T02:27:42;0.20;99.90
23609;DHT22;11982;50.810;4.442;2024-01-16T02:30:08;0.30;99.90
23609;DHT22;11982;50.810;4.442;2024-01-16T02:32:33;0.20;99.90
23609;DHT22;11982;50.810;4.442;2024-01-16T02:34:59;0.20;99.90
23609;DHT22;11982;50.810;4.442;2024-01-16T02:37:25;0.30;99.90
23609;DHT22;11982;50.810;4.442;2024-01-16T02:39:51;0.10;99.90
23609;DHT22;11982;50.810;4.442;2024-01-16T02:42:17;0.10;99.90
23609;DHT22;11982;50.810;4.442;2024-01-16T02:44:42;0.10;99.90
23609;DHT22;11982;50.810;4.442;2024-01-16T02:47:08;0.10;99.90
23609;DHT22;11982;50.810;4.442;2024-01-16T02:49:34;0.00;99.90
23609;DHT22;11982;50.810;4.442;2024-01-16T02:52:02;0.00;99.90
23609;DHT22;11982;50.810;4.442;2024-01-16T02:54:28;-0.10;99.90
23609;DHT22;11982;50.810;4.442;2024-01-16T02:56:53;-0.10;99.90
23609;DHT22;11982;50.810;4.442;2024-01-16T02:59:19;-0.10;99.90
23609;DHT22;11982;50.810;4.442;2024-01-16T03:01:44;-0.10;99.90
23609;DHT22;11982;50.810;4.442;2024-01-16T03:04:10;-0.10;99.90
23609;DHT22;11982;50.810;4.442;2024-01-16T03:06:36;-0.10;99.90
23609;DHT22;11982;50.810;4.442;2024-01-16T03:09:02;-0.10;99.90
23609;DHT22;11982;50.810;4.442;2024-01-16T03:11:28;-0.10;99.90
23609;DHT22;11982;50.810;4.442;2024-01-16T03:13:54;-0.10;99.90
23609;DHT22;11982;50.810;4.442;2024-01-16T03:16:19;-0.10;99.90
23609;DHT22;11982;50.810;4.442;2024-01-16T03:18:45;-0.10;99.90
23609;DHT22;11982;50.810;4.442;2024-01-16T03:21:13;-0.10;99.90
23609;DHT22;11982;50.810;4.442;2024-01-16T03:23:38;-0.10;99.90
23609;DHT22;11982;50.810;4.442;2024-01-16T03:26:04;-0.10;99.90
23609;DHT22;11982;50.810;4.442;2024-01-16T03:28:30;-0.10;99.90
23609;DHT22;11982;50.810;4.442;2024-01-16T03:30:55;-0.20;99.90
23609;DHT22;11982;50.810;4.442;2024-01-16T03:33:21;-0.20;99.90
23609;DHT22;11982;50.810;4.442;2024-01-16T03:35:47;-0.20;99.90
23609;DHT22;11982;50.810;4.442;2024-01-16T03:38:13;-0.20;99.90
23609;DHT22;11982;50.810;4.442;2024-01-16T03:40:38;-0.10;99.90
23609;DHT22;11982;50.810;4.442;2024-01-16T03:43:04;-0.10;99.90
23609;DHT22;11982;50.810;4.442;2024-01-16T03:45:33;-0.10;99.90
23609;DHT22;11982;50.810;4.442;2024-01-16T03:47:59;-0.10;99.90
23609;DHT22;11982;50.810;4.442;2024-01-16T03:50:24;-0.10;99.90
23609;DHT22;11982;50.810;4.442;2024-01-16T03:52:50;-0.10;99.90
23609;DHT22;11982;50.810;4.442;2024-01-16T03:55:16;-0.10;99.90
23609;DHT22;11982;50.810;4.442;2024-01-16T03:57:42;-0.20;99.90
23609;DHT22;11982;50.810;4.442;2024-01-16T04:00:08;-0.20;99.90
23609;DHT22;11982;50.810;4.442;2024-01-16T04:02:38;-0.20;99.90
23609;DHT22;11982;50.810;4.442;2024-01-16T04:05:04;-0.10;99.90
23609;DHT22;11982;50.810;4.442;2024-01-16T04:07:31;-0.20;99.90
23609;DHT22;11982;50.810;4.442;2024-01-16T04:09:56;-0.30;99.90
23609;DHT22;11982;50.810;4.442;2024-01-16T04:12:22;-0.30;99.90
23609;DHT22;11982;50.810;4.442;2024-01-16T04:14:48;-0.20;99.90
23609;DHT22;11982;50.810;4.442;2024-01-16T04:17:14;-0.30;99.90
23609;DHT22;11982;50.810;4.442;2024-01-16T04:19:40;-0.30;99.90
23609;DHT22;11982;50.810;4.442;2024-01-16T04:22:06;-0.40;99.90
23609;DHT22;11982;50.810;4.442;2024-01-16T04:24:32;-0.40;99.90
23609;DHT22;11982;50.810;4.442;2024-01-16T04:26:58;-0.40;99.90
23609;DHT22;11982;50.810;4.442;2024-01-16T04:29:23;-0.40;99.90
23609;DHT22;11982;50.810;4.442;2024-01-16T04:31:49;-0.50;99.90
23609;DHT22;11982;50.810;4.442;2024-01-16T04:34:15;-0.50;99.90
23609;DHT22;11982;50.810;4.442;2024-01-16T04:36:40;-0.50;99.90
23609;DHT22;11982;50.810;4.442;2024-01-16T04:39:06;-0.50;99.90
23609;DHT22;11982;50.810;4.442;2024-01-16T04:41:32;-0.60;99.90
23609;DHT22;11982;50.810;4.442;2024-01-16T04:43:57;-0.60;99.90
23609;DHT22;11982;50.810;4.442;2024-01-16T04:46:23;-0.70;99.90
23609;DHT22;11982;50.810;4.442;2024-01-16T04:48:49;-0.70;99.90
23609;DHT22;11982;50.810;4.442;2024-01-16T04:51:15;-0.60;99.90
23609;DHT22;11982;50.810;4.442;2024-01-16T04:53:41;-0.70;99.90
23609;DHT22;11982;50.810;4.442;2024-01-16T04:56:06;-0.80;99.90
23609;DHT22;11982;50.810;4.442;2024-01-16T04:58:32;-0.80;99.90
23609;DHT22;11982;50.810;4.442;2024-01-16T05:00:58;-0.70;99.90
23609;DHT22;11982;50.810;4.442;2024-01-16T05:03:24;-0.80;99.90
23609;DHT22;11982;50.810;4.442;2024-01-16T05:05:49;-0.80;99.90
23609;DHT22;11982;50.810;4.442;2024-01-16T05:08:15;-0.70;99.90
23609;DHT22;11982;50.810;4.442;2024-01-16T05:10:41;-0.80;99.90
23609;DHT22;11982;50.810;4.442;2024-01-16T05:13:06;-0.70;99.90
23609;DHT22;11982;50.810;4.442;2024-01-16T05:15:32;-0.80;99.90
23609;DHT22;11982;50.810;4.442;2024-01-16T05:17:58;-0.90;99.90
23609;DHT22;11982;50.810;4.442;2024-01-16T05:20:23;-0.90;99.90
23609;DHT22;11982;50.810;4.442;2024-01-16T05:22:49;-1.00;99.90
23609;DHT22;11982;50.810;4.442;2024-01-16T05:25:15;-1.00;99.90
23609;DHT22;11982;50.810;4.442;2024-01-16T05:27:42;-1.00;99.90
23609;DHT22;11982;50.810;4.442;2024-01-16T05:30:09;-1.00;99.90
23609;DHT22;11982;50.810;4.442;2024-01-16T05:32:35;-1.00;99.90
23609;DHT22;11982;50.810;4.442;2024-01-16T05:35:01;-1.00;99.90
23609;DHT22;11982;50.810;4.442;2024-01-16T05:37:26;-1.00;99.90
23609;DHT22;11982;50.810;4.442;2024-01-16T05:39:54;-1.00;99.90
23609;DHT22;11982;50.810;4.442;2024-01-16T05:42:20;-1.00;99.90
23609;DHT22;11982;50.810;4.442;2024-01-16T05:44:46;-1.10;99.90
23609;DHT22;11982;50.810;4.442;2024-01-16T05:47:11;-1.10;99.90
23609;DHT22;11982;50.810;4.442;2024-01-16T05:49:37;-1.00;99.90
23609;DHT22;11982;50.810;4.442;2024-01-16T05:52:03;-1.00;99.90
23609;DHT22;11982;50.810;4.442;2024-01-16T05:54:29;-1.00;99.90
23609;DHT22;11982;50.810;4.442;2024-01-16T05:56:55;-1.10;99.90
23609;DHT22;11982;50.810;4.442;2024-01-16T05:59:20;-1.00;99.90
23609;DHT22;11982;50.810;4.442;2024-01-16T06:01:46;-1.00;99.90
23609;DHT22;11982;50.810;4.442;2024-01-16T06:04:12;-1.00;99.90
23609;DHT22;11982;50.810;4.442;2024-01-16T06:06:37;-1.10;99.90
23609;DHT22;11982;50.810;4.442;2024-01-16T06:09:03;-1.10;99.90
23609;DHT22;11982;50.810;4.442;2024-01-16T06:11:33;-1.00;99.90
23609;DHT22;11982;50.810;4.442;2024-01-16T06:14:00;-1.00;99.90
23609;DHT22;11982;50.810;4.442;2024-01-16T06:16:26;-1.00;99.90
23609;DHT22;11982;50.810;4.442;2024-01-16T06:18:51;-0.90;99.90
23609;DHT22;11982;50.810;4.442;2024-01-16T06:21:17;-0.90;99.90
23609;DHT22;11982;50.810;4.442;2024-01-16T06:23:43;-0.80;99.90
23609;DHT22;11982;50.810;4.442;2024-01-16T06:26:09;-0.80;99.90
23609;DHT22;11982;50.810;4.442;2024-01-16T06:28:35;-0.70;99.90
23609;DHT22;11982;50.810;4.442;2024-01-16T06:31:00;-0.70;99.90
23609;DHT22;11982;50.810;4.442;2024-01-16T06:33:26;-0.70;99.90
23609;DHT22;11982;50.810;4.442;2024-01-16T06:35:54;-0.60;99.90
23609;DHT22;11982;50.810;4.442;2024-01-16T06:38:20;-0.60;99.90
23609;DHT22;11982;50.810;4.442;2024-01-16T06:40:46;-0.60;99.90
23609;DHT22;11982;50.810;4.442;2024-01-16T06:43:12;-0.60;99.90
23609;DHT22;11982;50.810;4.442;2024-01-16T06:45:40;-0.60;99.90
23609;DHT22;11982;50.810;4.442;2024-01-16T06:48:05;-0.60;99.90
23609;DHT22;11982;50.810;4.442;2024-01-16T06:50:31;-0.60;99.90
23609;DHT22;11982;50.810;4.442;2024-01-16T06:52:57;-0.60;99.90
23609;DHT22;11982;50.810;4.442;2024-01-16T06:55:22;-0.60;99.90
23609;DHT22;11982;50.810;4.442;2024-01-16T06:57:48;-0.60;99.90
23609;DHT22;11982;50.810;4.442;2024-01-16T07:00:14;-0.60;99.90
23609;DHT22;11982;50.810;4.442;2024-01-16T07:02:40;-0.70;99.90
23609;DHT22;11982;50.810;4.442;2024-01-16T07:05:09;-0.70;99.90
23609;DHT22;11982;50.810;4.442;2024-01-16T07:07:35;-0.80;99.90
23609;DHT22;11982;50.810;4.442;2024-01-16T07:10:00;-0.80;99.90
23609;DHT22;11982;50.810;4.442;2024-01-16T07:12:26;-0.90;99.90
23609;DHT22;11982;50.810;4.442;2024-01-16T07:14:52;-0.90;99.90
23609;DHT22;11982;50.810;4.442;2024-01-16T07:17:17;-0.90;99.90
23609;DHT22;11982;50.810;4.442;2024-01-16T07:19:43;-0.90;99.90
23609;DHT22;11982;50.810;4.442;2024-01-16T07:22:09;-0.90;99.90
23609;DHT22;11982;50.810;4.442;2024-01-16T07:24:34;-0.80;99.90
23609;DHT22;11982;50.810;4.442;2024-01-16T07:27:00;-0.80;99.90
23609;DHT22;11982;50.810;4.442;2024-01-16T07:29:26;-0.80;99.90
23609;DHT22;11982;50.810;4.442;2024-01-16T07:31:52;-0.90;99.90
23609;DHT22;11982;50.810;4.442;2024-01-16T07:34:18;-0.90;99.90
23609;DHT22;11982;50.810;4.442;2024-01-16T07:36:47;-0.90;99.90
23609;DHT22;11982;50.810;4.442;2024-01-16T07:39:13;-0.90;99.90
23609;DHT22;11982;50.810;4.442;2024-01-16T07:41:39;-0.90;99.90
23609;DHT22;11982;50.810;4.442;2024-01-16T07:44:05;-0.80;99.90
23609;DHT22;11982;50.810;4.442;2024-01-16T07:46:31;-0.80;99.90
23609;DHT22;11982;50.810;4.442;2024-01-16T07:48:57;-0.80;99.90
23609;DHT22;11982;50.810;4.442;2024-01-16T07:51:23;-0.80;99.90
23609;DHT22;11982;50.810;4.442;2024-01-16T07:54:03;-0.80;99.90
23609;DHT22;11982;50.810;4.442;2024-01-16T07:56:29;-0.80;99.90
23609;DHT22;11982;50.810;4.442;2024-01-16T07:58:55;-0.80;99.90
23609;DHT22;11982;50.810;4.442;2024-01-16T08:01:20;-0.80;99.90
23609;DHT22;11982;50.810;4.442;2024-01-16T08:03:46;-0.90;99.90
23609;DHT22;11982;50.810;4.442;2024-01-16T08:06:13;-0.80;99.90
23609;DHT22;11982;50.810;4.442;2024-01-16T08:08:38;-0.80;99.90
23609;DHT22;11982;50.810;4.442;2024-01-16T08:11:04;-0.70;99.90
23609;DHT22;11982;50.810;4.442;2024-01-16T08:13:30;-0.70;99.90
23609;DHT22;11982;50.810;4.442;2024-01-16T08:15:55;-0.70;99.90
23609;DHT22;11982;50.810;4.442;2024-01-16T08:18:21;-0.60;99.90
23609;DHT22;11982;50.810;4.442;2024-01-16T08:20:47;-0.60;99.90
23609;DHT22;11982;50.810;4.442;2024-01-16T08:23:12;-0.60;99.90
23609;DHT22;11982;50.810;4.442;2024-01-16T08:25:38;-0.60;99.90
23609;DHT22;11982;50.810;4.442;2024-01-16T08:28:07;-0.50;99.90
23609;DHT22;11982;50.810;4.442;2024-01-16T08:30:33;-0.50;99.90
23609;DHT22;11982;50.810;4.442;2024-01-16T08:32:58;-0.50;99.90
23609;DHT22;11982;50.810;4.442;2024-01-16T08:35:24;-0.40;99.90
23609;DHT22;11982;50.810;4.442;2024-01-16T08:37:50;-0.40;99.90
23609;DHT22;11982;50.810;4.442;2024-01-16T08:40:15;-0.30;99.90
23609;DHT22;11982;50.810;4.442;2024-01-16T08:42:41;-0.30;99.90
23609;DHT22;11982;50.810;4.442;2024-01-16T08:45:07;-0.20;99.90
23609;DHT22;11982;50.810;4.442;2024-01-16T08:47:33;-0.20;99.90
23609;DHT22;11982;50.810;4.442;2024-01-16T08:49:58;-0.10;99.90
23609;DHT22;11982;50.810;4.442;2024-01-16T08:52:24;-0.10;99.90
23609;DHT22;11982;50.810;4.442;2024-01-16T08:54:50;0.00;99.90
23609;DHT22;11982;50.810;4.442;2024-01-16T08:57:15;0.00;99.90
23609;DHT22;11982;50.810;4.442;2024-01-16T08:59:41;0.00;99.90
23609;DHT22;11982;50.810;4.442;2024-01-16T09:02:07;0.00;99.90
23609;DHT22;11982;50.810;4.442;2024-01-16T09:04:33;0.10;99.90
23609;DHT22;11982;50.810;4.442;2024-01-16T09:07:00;0.20;99.90
23609;DHT22;11982;50.810;4.442;2024-01-16T09:09:25;0.20;99.90
23609;DHT22;11982;50.810;4.442;2024-01-16T09:11:51;0.20;99.90
23609;DHT22;11982;50.810;4.442;2024-01-16T09:14:17;0.30;99.90
23609;DHT22;11982;50.810;4.442;2024-01-16T09:16:42;0.30;99.90
23609;DHT22;11982;50.810;4.442;2024-01-16T09:19:08;0.40;99.90
23609;DHT22;11982;50.810;4.442;2024-01-16T09:21:35;0.30;99.90
23609;DHT22;11982;50.810;4.442;2024-01-16T09:24:00;0.20;99.90
23609;DHT22;11982;50.810;4.442;2024-01-16T09:26:26;0.20;99.90
23609;DHT22;11982;50.810;4.442;2024-01-16T09:28:52;0.30;99.90
23609;DHT22;11982;50.810;4.442;2024-01-16T09:31:17;0.30;99.90
23609;DHT22;11982;50.810;4.442;2024-01-16T09:33:43;0.40;99.90
23609;DHT22;11982;50.810;4.442;2024-01-16T09:36:09;0.40;99.90
23609;DHT22;11982;50.810;4.442;2024-01-16T09:38:34;0.30;99.90
23609;DHT22;11982;50.810;4.442;2024-01-16T09:41:00;0.30;99.90
23609;DHT22;11982;50.810;4.442;2024-01-16T09:43:28;0.30;99.90
23609;DHT22;11982;50.810;4.442;2024-01-16T09:45:56;0.30;99.90
23609;DHT22;11982;50.810;4.442;2024-01-16T09:48:22;0.30;99.90
23609;DHT22;11982;50.810;4.442;2024-01-16T09:50:48;0.30;99.90
23609;DHT22;11982;50.810;4.442;2024-01-16T09:53:13;0.30;99.90
23609;DHT22;11982;50.810;4.442;2024-01-16T09:55:39;0.30;99.90
23609;DHT22;11982;50.810;4.442;2024-01-16T09:58:05;0.30;99.90
23609;DHT22;11982;50.810;4.442;2024-01-16T10:00:35;0.30;99.90
23609;DHT22;11982;50.810;4.442;2024-01-16T10:03:01;0.30;99.90
23609;DHT22;11982;50.810;4.442;2024-01-16T10:05:29;0.20;99.90
23609;DHT22;11982;50.810;4.442;2024-01-16T10:07:56;0.30;99.90
23609;DHT22;11982;50.810;4.442;2024-01-16T10:10:22;0.40;99.90
23609;DHT22;11982;50.810;4.442;2024-01-16T10:12:49;0.40;99.90
23609;DHT22;11982;50.810;4.442;2024-01-16T10:15:16;0.50;99.90
23609;DHT22;11982;50.810;4.442;2024-01-16T10:17:42;0.50;99.90
23609;DHT22;11982;50.810;4.442;2024-01-16T10:20:09;0.50;99.90
23609;DHT22;11982;50.810;4.442;2024-01-16T10:22:39;0.50;99.90
23609;DHT22;11982;50.810;4.442;2024-01-16T10:25:10;0.50;99.90
23609;DHT22;11982;50.810;4.442;2024-01-16T10:27:39;0.50;99.90
23609;DHT22;11982;50.810;4.442;2024-01-16T10:30:05;0.50;99.90
23609;DHT22;11982;50.810;4.442;2024-01-16T10:32:35;0.40;99.90
23609;DHT22;11982;50.810;4.442;2024-01-16T10:35:06;0.50;99.90
23609;DHT22;11982;50.810;4.442;2024-01-16T10:37:43;0.50;99.90
23609;DHT22;11982;50.810;4.442;2024-01-16T10:40:09;0.40;99.90
23609;DHT22;11982;50.810;4.442;2024-01-16T10:42:36;0.40;99.90
23609;DHT22;11982;50.810;4.442;2024-01-16T10:45:01;0.40;99.90
23609;DHT22;11982;50.810;4.442;2024-01-16T10:47:28;0.40;99.90
23609;DHT22;11982;50.810;4.442;2024-01-16T10:49:53;0.40;99.90
23609;DHT22;11982;50.810;4.442;2024-01-16T10:52:22;0.40;99.90
23609;DHT22;11982;50.810;4.442;2024-01-16T10:54:50;0.50;99.90
23609;DHT22;11982;50.810;4.442;2024-01-16T10:57:17;0.60;99.90
23609;DHT22;11982;50.810;4.442;2024-01-16T10:59:50;0.60;99.90
23609;DHT22;11982;50.810;4.442;2024-01-16T11:02:23;0.70;99.90
23609;DHT22;11982;50.810;4.442;2024-01-16T11:04:50;0.70;99.90
23609;DHT22;11982;50.810;4.442;2024-01-16T11:07:18;0.70;99.90
23609;DHT22;11982;50.810;4.442;2024-01-16T11:09:44;0.90;99.90
23609;DHT22;11982;50.810;4.442;2024-01-16T11:12:11;1.00;99.90
23609;DHT22;11982;50.810;4.442;2024-01-16T11:14:42;0.90;99.90
23609;DHT22;11982;50.810;4.442;2024-01-16T11:17:09;0.90;99.90
23609;DHT22;11982;50.810;4.442;2024-01-16T11:19:43;1.00;99.90
23609;DHT22;11982;50.810;4.442;2024-01-16T11:22:09;1.00;99.90
23609;DHT22;11982;50.810;4.442;2024-01-16T11:24:35;1.00;99.90
23609;DHT22;11982;50.810;4.442;2024-01-16T11:27:01;1.10;99.90
23609;DHT22;11982;50.810;4.442;2024-01-16T11:31:52;1.10;99.90
23609;DHT22;11982;50.810;4.442;2024-01-16T11:37:07;1.20;99.90
23609;DHT22;11982;50.810;4.442;2024-01-16T11:39:34;1.30;99.90
23609;DHT22;11982;50.810;4.442;2024-01-16T11:42:00;1.30;99.90
23609;DHT22;11982;50.810;4.442;2024-01-16T11:44:45;1.40;99.90
23609;DHT22;11982;50.810;4.442;2024-01-16T11:47:20;1.50;99.90
23609;DHT22;11982;50.810;4.442;2024-01-16T11:49:47;1.50;99.90
23609;DHT22;11982;50.810;4.442;2024-01-16T11:52:13;1.50;99.90
23609;DHT22;11982;50.810;4.442;2024-01-16T11:54:40;1.50;99.90
23609;DHT22;11982;50.810;4.442;2024-01-16T11:57:31;1.50;99.90
23609;DHT22;11982;50.810;4.442;2024-01-16T12:00:03;1.50;99.90
23609;DHT22;11982;50.810;4.442;2024-01-16T12:02:41;1.60;99.90
23609;DHT22;11982;50.810;4.442;2024-01-16T12:05:11;1.60;99.90
23609;DHT22;11982;50.810;4.442;2024-01-16T12:07:47;1.70;99.90
23609;DHT22;11982;50.810;4.442;2024-01-16T12:10:22;1.80;99.90
23609;DHT22;11982;50.810;4.442;2024-01-16T12:12:49;1.70;99.90
23609;DHT22;11982;50.810;4.442;2024-01-16T12:15:15;1.60;99.90
23609;DHT22;11982;50.810;4.442;2024-01-16T12:17:58;1.80;99.90
23609;DHT22;11982;50.810;4.442;2024-01-16T12:20:27;1.80;99.90
23609;DHT22;11982;50.810;4.442;2024-01-16T12:22:59;1.90;99.90
23609;DHT22;11982;50.810;4.442;2024-01-16T12:25:27;1.90;99.90
23609;DHT22;11982;50.810;4.442;2024-01-16T12:28:00;2.00;99.90
23609;DHT22;11982;50.810;4.442;2024-01-16T12:30:30;2.00;99.90
23609;DHT22;11982;50.810;4.442;2024-01-16T12:35:28;2.00;99.90
23609;DHT22;11982;50.810;4.442;2024-01-16T12:37:58;2.00;99.90
23609;DHT22;11982;50.810;4.442;2024-01-16T12:40:25;2.10;99.90
23609;DHT22;11982;50.810;4.442;2024-01-16T12:42:51;2.00;99.90
23609;DHT22;11982;50.810;4.442;2024-01-16T12:45:17;2.00;99.90
23609;DHT22;11982;50.810;4.442;2024-01-16T12:47:43;2.10;99.90
23609;DHT22;11982;50.810;4.442;2024-01-16T12:50:10;2.00;99.90
23609;DHT22;11982;50.810;4.442;2024-01-16T12:52:40;2.00;99.90
23609;DHT22;11982;50.810;4.442;2024-01-16T12:55:07;2.00;99.90
23609;DHT22;11982;50.810;4.442;2024-01-16T12:57:33;2.00;99.90
23609;DHT22;11982;50.810;4.442;2024-01-16T12:59:59;2.10;99.90
23609;DHT22;11982;50.810;4.442;2024-01-16T13:02:27;2.10;99.90
23609;DHT22;11982;50.810;4.442;2024-01-16T13:05:00;2.10;99.90
23609;DHT22;11982;50.810;4.442;2024-01-16T13:07:28;2.00;99.90
23609;DHT22;11982;50.810;4.442;2024-01-16T13:10:09;1.90;99.90
23609;DHT22;11982;50.810;4.442;2024-01-16T13:12:37;2.00;99.90
23609;DHT22;11982;50.810;4.442;2024-01-16T13:15:04;2.10;99.90
23609;DHT22;11982;50.810;4.442;2024-01-16T13:17:34;2.10;99.90
23609;DHT22;11982;50.810;4.442;2024-01-16T13:20:01;2.20;99.90
23609;DHT22;11982;50.810;4.442;2024-01-16T13:22:28;2.20;99.90
23609;DHT22;11982;50.810;4.442;2024-01-16T13:24:54;2.20;99.90
23609;DHT22;11982;50.810;4.442;2024-01-16T13:27:21;2.20;99.90
23609;DHT22;11982;50.810;4.442;2024-01-16T13:29:47;2.10;99.90
23609;DHT22;11982;50.810;4.442;2024-01-16T13:32:13;2.20;99.90
23609;DHT22;11982;50.810;4.442;2024-01-16T13:34:39;2.30;99.90
23609;DHT22;11982;50.810;4.442;2024-01-16T13:37:04;2.20;99.90
23609;DHT22;11982;50.810;4.442;2024-01-16T13:39:30;2.20;99.90
23609;DHT22;11982;50.810;4.442;2024-01-16T13:42:01;2.20;99.90
23609;DHT22;11982;50.810;4.442;2024-01-16T13:44:31;2.20;99.90
23609;DHT22;11982;50.810;4.442;2024-01-16T13:49:29;2.20;99.90
23609;DHT22;11982;50.810;4.442;2024-01-16T13:51:54;2.30;99.90
23609;DHT22;11982;50.810;4.442;2024-01-16T13:54:20;2.30;99.90
23609;DHT22;11982;50.810;4.442;2024-01-16T13:56:45;2.30;99.90
23609;DHT22;11982;50.810;4.442;2024-01-16T13:59:12;2.20;99.90
23609;DHT22;11982;50.810;4.442;2024-01-16T14:01:38;2.20;99.90
23609;DHT22;11982;50.810;4.442;2024-01-16T14:04:03;2.20;99.90
23609;DHT22;11982;50.810;4.442;2024-01-16T14:06:30;2.20;99.90
23609;DHT22;11982;50.810;4.442;2024-01-16T14:08:56;2.10;99.90
23609;DHT22;11982;50.810;4.442;2024-01-16T14:11:22;2.20;99.90
23609;DHT22;11982;50.810;4.442;2024-01-16T14:13:47;2.10;99.90
23609;DHT22;11982;50.810;4.442;2024-01-16T14:16:13;2.10;99.90
23609;DHT22;11982;50.810;4.442;2024-01-16T14:18:39;2.10;99.90
23609;DHT22;11982;50.810;4.442;2024-01-16T14:21:05;2.10;99.90
23609;DHT22;11982;50.810;4.442;2024-01-16T14:23:31;2.10;99.90
23609;DHT22;11982;50.810;4.442;2024-01-16T14:25:57;2.10;99.90
23609;DHT22;11982;50.810;4.442;2024-01-16T14:28:23;2.10;99.90
23609;DHT22;11982;50.810;4.442;2024-01-16T14:30:51;2.10;99.90
23609;DHT22;11982;50.810;4.442;2024-01-16T14:33:17;2.00;99.90
23609;DHT22;11982;50.810;4.442;2024-01-16T14:35:43;2.00;99.90
23609;DHT22;11982;50.810;4.442;2024-01-16T14:38:09;2.00;99.90
23609;DHT22;11982;50.810;4.442;2024-01-16T14:40:35;2.00;99.90
23609;DHT22;11982;50.810;4.442;2024-01-16T14:43:00;1.90;99.90
23609;DHT22;11982;50.810;4.442;2024-01-16T14:45:30;2.00;99.90
23609;DHT22;11982;50.810;4.442;2024-01-16T14:47:57;2.00;99.90
23609;DHT22;11982;50.810;4.442;2024-01-16T14:50:23;2.00;99.90
23609;DHT22;11982;50.810;4.442;2024-01-16T14:52:50;2.00;99.90
23609;DHT22;11982;50.810;4.442;2024-01-16T14:55:16;2.00;99.90
23609;DHT22;11982;50.810;4.442;2024-01-16T14:57:42;1.90;99.90
23609;DHT22;11982;50.810;4.442;2024-01-16T15:00:11;2.00;99.90
23609;DHT22;11982;50.810;4.442;2024-01-16T15:02:55;1.90;99.90
23609;DHT22;11982;50.810;4.442;2024-01-16T15:05:21;1.90;99.90
23609;DHT22;11982;50.810;4.442;2024-01-16T15:07:47;1.90;99.90
23609;DHT22;11982;50.810;4.442;2024-01-16T15:10:14;1.90;99.90
23609;DHT22;11982;50.810;4.442;2024-01-16T15:12:43;1.90;99.90
23609;DHT22;11982;50.810;4.442;2024-01-16T15:15:10;1.80;99.90
23609;DHT22;11982;50.810;4.442;2024-01-16T15:17:37;1.80;99.90
23609;DHT22;11982;50.810;4.442;2024-01-16T15:20:03;1.80;99.90
23609;DHT22;11982;50.810;4.442;2024-01-16T15:22:32;1.80;99.90
23609;DHT22;11982;50.810;4.442;2024-01-16T15:24:58;1.80;99.90
23609;DHT22;11982;50.810;4.442;2024-01-16T15:27:24;1.90;99.90
23609;DHT22;11982;50.810;4.442;2024-01-16T15:29:49;1.80;99.90
23609;DHT22;11982;50.810;4.442;2024-01-16T15:32:15;1.80;99.90
23609;DHT22;11982;50.810;4.442;2024-01-16T15:34:41;1.80;99.90
23609;DHT22;11982;50.810;4.442;2024-01-16T15:37:07;1.80;99.90
23609;DHT22;11982;50.810;4.442;2024-01-16T15:39:32;1.70;99.90
23609;DHT22;11982;50.810;4.442;2024-01-16T15:41:58;1.70;99.90
23609;DHT22;11982;50.810;4.442;2024-01-16T15:44:27;1.60;99.90
23609;DHT22;11982;50.810;4.442;2024-01-16T15:49:21;1.40;99.90
23609;DHT22;11982;50.810;4.442;2024-01-16T15:51:47;1.40;99.90